sensor_id;sensor_type;location;lat;lon;timestamp;pressure;altitude;pressure_sealevel;temperature;humidity
84028;BME280;74111;45.650;25.612;2023-12-14T05:23:53;93646.98;;;9.67;67.12
84028;BME280;74111;45.650;25.612;2023-12-14T05:26:22;93649.66;;;9.67;66.65
84028;BME280;74111;45.650;25.612;2023-12-14T05:28:51;93652.19;;;9.73;66.91
84028;BME280;74111;45.650;25.612;2023-12-14T05:31:21;93661.05;;;9.79;67.25
84028;BME280;74111;45.650;25.612;2023-12-14T05:33:51;93673.95;;;9.85;67.49
84028;BME280;74111;45.650;25.612;2023-12-14T05:36:21;93674.43;;;9.90;67.23
84028;BME280;74111;45.650;25.612;2023-12-14T05:38:51;93667.72;;;9.96;67.15
84028;BME280;74111;45.650;25.612;2023-12-14T05:41:19;93669.70;;;10.01;66.91
84028;BME280;74111;45.650;25.612;2023-12-14T05:43:49;93662.92;;;10.05;66.88
84028;BME280;74111;45.650;25.612;2023-12-14T05:46:22;93652.87;;;10.06;66.95
84028;BME280;74111;45.650;25.612;2023-12-14T05:48:51;93648.23;;;10.09;67.01
84028;BME280;74111;45.650;25.612;2023-12-14T05:51:31;93660.69;;;10.11;66.98
84028;BME280;74111;45.650;25.612;2023-12-14T05:54:01;93663.30;;;10.14;66.90
84028;BME280;74111;45.650;25.612;2023-12-14T05:56:30;93665.33;;;10.17;67.06
84028;BME280;74111;45.650;25.612;2023-12-14T05:58:59;93667.35;;;10.21;66.80
84028;BME280;74111;45.650;25.612;2023-12-14T06:01:30;93657.20;;;10.26;66.87
84028;BME280;74111;45.650;25.612;2023-12-14T06:03:59;93653.98;;;10.35;66.99
84028;BME280;74111;45.650;25.612;2023-12-14T06:06:29;93663.15;;;10.41;67.25
84028;BME280;74111;45.650;25.612;2023-12-14T06:09:01;93666.71;;;10.48;67.05
84028;BME280;74111;45.650;25.612;2023-12-14T06:11:31;93657.23;;;10.51;66.81
84028;BME280;74111;45.650;25.612;2023-12-14T06:13:59;93660.77;;;10.52;66.40
84028;BME280;74111;45.650;25.612;2023-12-14T06:16:28;93671.55;;;10.51;66.48
84028;BME280;74111;45.650;25.612;2023-12-14T06:18:57;93667.30;;;10.47;66.43
84028;BME280;74111;45.650;25.612;2023-12-14T06:21:25;93663.80;;;10.44;66.36
84028;BME280;74111;45.650;25.612;2023-12-14T06:23:57;93666.11;;;10.43;66.40
84028;BME280;74111;45.650;25.612;2023-12-14T06:26:27;93671.94;;;10.44;66.38
84028;BME280;74111;45.650;25.612;2023-12-14T06:28:57;93683.46;;;10.46;66.53
84028;BME280;74111;45.650;25.612;2023-12-14T06:31:26;93681.47;;;10.48;66.45
84028;BME280;74111;45.650;25.612;2023-12-14T06:33:57;93684.66;;;10.52;66.45
84028;BME280;74111;45.650;25.612;2023-12-14T06:36:32;93682.30;;;10.55;66.29
84028;BME280;74111;45.650;25.612;2023-12-14T06:39:02;93679.73;;;10.58;66.71
84028;BME280;74111;45.650;25.612;2023-12-14T06:41:34;93680.02;;;10.62;66.62
84028;BME280;74111;45.650;25.612;2023-12-14T06:44:04;93684.33;;;10.64;66.20
84028;BME280;74111;45.650;25.612;2023-12-14T06:46:34;93679.96;;;10.53;66.23
84028;BME280;74111;45.650;25.612;2023-12-14T06:49:03;93683.19;;;10.35;66.59
84028;BME280;74111;45.650;25.612;2023-12-14T06:51:32;93683.07;;;10.21;67.03
84028;BME280;74111;45.650;25.612;2023-12-14T06:54:00;93682.16;;;10.10;67.37
84028;BME280;74111;45.650;25.612;2023-12-14T06:56:30;93691.92;;;10.08;67.68
84028;BME280;74111;45.650;25.612;2023-12-14T06:58:59;93692.61;;;10.06;67.41
84028;BME280;74111;45.650;25.612;2023-12-14T07:01:28;93693.85;;;10.09;67.16
84028;BME280;74111;45.650;25.612;2023-12-14T07:03:58;93700.27;;;10.14;67.00
84028;BME280;74111;45.650;25.612;2023-12-14T07:06:27;93709.13;;;10.18;67.35
84028;BME280;74111;45.650;25.612;2023-12-14T07:08:55;93712.39;;;10.22;67.03
84028;BME280;74111;45.650;25.612;2023-12-14T07:11:26;93719.29;;;10.28;66.95
84028;BME280;74111;45.650;25.612;2023-12-14T07:13:54;93723.91;;;10.33;67.13
84028;BME280;74111;45.650;25.612;2023-12-14T07:16:23;93728.01;;;10.36;66.97
84028;BME280;74111;45.650;25.612;2023-12-14T07:18:52;93726.51;;;10.42;67.03
84028;BME280;74111;45.650;25.612;2023-12-14T07:21:22;93723.52;;;10.48;67.22
84028;BME280;74111;45.650;25.612;2023-12-14T07:23:52;93718.73;;;10.53;67.35
84028;BME280;74111;45.650;25.612;2023-12-14T07:26:21;93718.86;;;10.52;67.18
84028;BME280;74111;45.650;25.612;2023-12-14T07:28:53;93714.36;;;10.47;67.03
84028;BME280;74111;45.650;25.612;2023-12-14T07:31:22;93714.19;;;10.44;66.82
84028;BME280;74111;45.650;25.612;2023-12-14T07:33:55;93715.16;;;10.43;67.07
84028;BME280;74111;45.650;25.612;2023-12-14T07:36:25;93717.23;;;10.46;67.02
84028;BME280;74111;45.650;25.612;2023-12-14T07:38:55;93734.34;;;10.49;66.91
84028;BME280;74111;45.650;25.612;2023-12-14T07:41:24;93750.84;;;10.49;66.87
84028;BME280;74111;45.650;25.612;2023-12-14T07:43:56;93758.10;;;10.47;67.13
84028;BME280;74111;45.650;25.612;2023-12-14T07:46:25;93755.52;;;10.44;67.02
84028;BME280;74111;45.650;25.612;2023-12-14T07:48:54;93759.81;;;10.42;67.35
84028;BME280;74111;45.650;25.612;2023-12-14T07:51:24;93766.89;;;10.43;67.68
84028;BME280;74111;45.650;25.612;2023-12-14T07:53:53;93774.52;;;10.44;67.75
84028;BME280;74111;45.650;25.612;2023-12-14T07:56:23;93780.50;;;10.46;67.69
84028;BME280;74111;45.650;25.612;2023-12-14T07:58:54;93789.17;;;10.49;67.74
84028;BME280;74111;45.650;25.612;2023-12-14T08:01:23;93800.50;;;10.53;68.07
84028;BME280;74111;45.650;25.612;2023-12-14T08:03:52;93786.63;;;10.57;67.93
84028;BME280;74111;45.650;25.612;2023-12-14T08:06:21;93773.02;;;10.59;67.87
84028;BME280;74111;45.650;25.612;2023-12-14T08:08:51;93776.89;;;10.63;67.63
84028;BME280;74111;45.650;25.612;2023-12-14T08:11:21;93779.11;;;10.68;67.42
84028;BME280;74111;45.650;25.612;2023-12-14T09:08:05;93852.52;;;10.60;68.14
84028;BME280;74111;45.650;25.612;2023-12-14T09:10:34;93863.14;;;10.59;67.92
84028;BME280;74111;45.650;25.612;2023-12-14T09:13:04;93865.52;;;10.59;67.76
84028;BME280;74111;45.650;25.612;2023-12-14T09:15:33;93857.80;;;10.61;67.81
84028;BME280;74111;45.650;25.612;2023-12-14T09:18:02;93847.42;;;10.62;67.96
84028;BME280;74111;45.650;25.612;2023-12-14T09:20:31;93847.19;;;10.64;67.64
84028;BME280;74111;45.650;25.612;2023-12-14T09:23:00;93856.71;;;10.62;67.47
84028;BME280;74111;45.650;25.612;2023-12-14T09:25:29;93869.67;;;10.58;66.51
84028;BME280;74111;45.650;25.612;2023-12-14T09:27:59;93867.91;;;10.56;67.07
84028;BME280;74111;45.650;25.612;2023-12-14T09:30:28;93859.11;;;10.52;67.15
84028;BME280;74111;45.650;25.612;2023-12-14T09:32:58;93849.31;;;10.50;66.69
84028;BME280;74111;45.650;25.612;2023-12-14T09:35:27;93848.44;;;10.49;66.76
84028;BME280;74111;45.650;25.612;2023-12-14T09:37:56;93860.53;;;10.49;66.71
84028;BME280;74111;45.650;25.612;2023-12-14T09:40:26;93877.30;;;10.50;66.49
84028;BME280;74111;45.650;25.612;2023-12-14T09:42:58;93882.98;;;10.46;66.16
84028;BME280;74111;45.650;25.612;2023-12-14T09:45:30;93880.04;;;10.42;66.72
84028;BME280;74111;45.650;25.612;2023-12-14T09:48:00;93865.67;;;10.44;66.93
84028;BME280;74111;45.650;25.612;2023-12-14T09:50:30;93852.65;;;10.48;67.18
84028;BME280;74111;45.650;25.612;2023-12-14T09:53:00;93852.13;;;10.53;66.94
84028;BME280;74111;45.650;25.612;2023-12-14T09:55:29;93860.70;;;10.57;66.68
84028;BME280;74111;45.650;25.612;2023-12-14T09:58:00;93869.09;;;10.55;66.63
84028;BME280;74111;45.650;25.612;2023-12-14T10:00:40;93866.71;;;10.52;65.91
84028;BME280;74111;45.650;25.612;2023-12-14T10:03:24;93853.55;;;10.48;66.20
84028;BME280;74111;45.650;25.612;2023-12-14T10:05:56;93841.48;;;10.46;66.48
84028;BME280;74111;45.650;25.612;2023-12-14T10:08:26;93852.28;;;10.42;65.43
84028;BME280;74111;45.650;25.612;2023-12-14T10:10:55;93872.64;;;10.33;65.59
84028;BME280;74111;45.650;25.612;2023-12-14T10:13:37;93883.65;;;10.26;65.64
84028;BME280;74111;45.650;25.612;2023-12-14T10:16:07;93885.08;;;10.20;65.64
84028;BME280;74111;45.650;25.612;2023-12-14T10:18:45;93877.33;;;10.18;66.52
84028;BME280;74111;45.650;25.612;2023-12-14T10:21:15;93881.58;;;10.14;66.09
84028;BME280;74111;45.650;25.612;2023-12-14T10:23:45;93882.34;;;10.04;66.09
84028;BME280;74111;45.650;25.612;2023-12-14T10:26:15;93890.36;;;9.98;66.07
84028;BME280;74111;45.650;25.612;2023-12-14T10:28:44;93897.02;;;9.94;66.17
84028;BME280;74111;45.650;25.612;2023-12-14T10:31:12;93904.47;;;9.88;66.44
84028;BME280;74111;45.650;25.612;2023-12-14T10:33:43;93915.04;;;9.84;66.26
84028;BME280;74111;45.650;25.612;2023-12-14T10:36:15;93923.77;;;9.74;66.41
84028;BME280;74111;45.650;25.612;2023-12-14T10:38:48;93908.67;;;9.70;66.42
84028;BME280;74111;45.650;25.612;2023-12-14T10:41:23;93895.48;;;9.65;66.74
84028;BME280;74111;45.650;25.612;2023-12-14T10:43:57;93903.98;;;9.65;66.48
84028;BME280;74111;45.650;25.612;2023-12-14T10:46:50;93915.00;;;9.60;66.76
84028;BME280;74111;45.650;25.612;2023-12-14T10:49:25;93912.43;;;9.56;66.83
84028;BME280;74111;45.650;25.612;2023-12-14T10:51:56;93916.57;;;9.53;66.77
84028;BME280;74111;45.650;25.612;2023-12-14T10:54:26;93918.11;;;9.50;67.17
84028;BME280;74111;45.650;25.612;2023-12-14T10:56:58;93918.05;;;9.49;67.33
84028;BME280;74111;45.650;25.612;2023-12-14T10:59:27;93921.20;;;9.49;67.41
84028;BME280;74111;45.650;25.612;2023-12-14T11:01:56;93921.02;;;9.52;67.26
84028;BME280;74111;45.650;25.612;2023-12-14T11:04:27;93923.00;;;9.54;67.23
84028;BME280;74111;45.650;25.612;2023-12-14T11:06:57;93920.09;;;9.57;67.12
84028;BME280;74111;45.650;25.612;2023-12-14T11:09:25;93924.21;;;9.58;67.27
84028;BME280;74111;45.650;25.612;2023-12-14T11:11:57;93925.29;;;9.60;67.32
84028;BME280;74111;45.650;25.612;2023-12-14T11:14:28;93934.04;;;9.63;67.38
84028;BME280;74111;45.650;25.612;2023-12-14T11:17:05;93941.20;;;9.65;67.75
84028;BME280;74111;45.650;25.612;2023-12-14T11:19:36;93940.22;;;9.65;67.53
84028;BME280;74111;45.650;25.612;2023-12-14T11:22:10;93938.89;;;9.67;67.57
84028;BME280;74111;45.650;25.612;2023-12-14T11:24:51;93934.52;;;9.67;67.27
84028;BME280;74111;45.650;25.612;2023-12-14T11:27:26;93928.11;;;9.66;67.25
84028;BME280;74111;45.650;25.612;2023-12-14T11:29:56;93941.88;;;9.65;67.09
84028;BME280;74111;45.650;25.612;2023-12-14T11:32:26;93944.95;;;9.60;67.15
84028;BME280;74111;45.650;25.612;2023-12-14T11:34:55;93946.69;;;9.58;67.24
84028;BME280;74111;45.650;25.612;2023-12-14T11:37:24;93962.71;;;9.51;67.66
84028;BME280;74111;45.650;25.612;2023-12-14T11:39:53;93980.85;;;9.46;67.81
84028;BME280;74111;45.650;25.612;2023-12-14T11:42:23;93989.70;;;9.44;68.25
84028;BME280;74111;45.650;25.612;2023-12-14T11:44:52;93989.26;;;9.42;68.06
84028;BME280;74111;45.650;25.612;2023-12-14T11:47:21;93994.11;;;9.42;67.93
84028;BME280;74111;45.650;25.612;2023-12-14T11:49:50;93997.51;;;9.38;67.24
84028;BME280;74111;45.650;25.612;2023-12-14T11:52:21;93981.88;;;9.29;67.27
84028;BME280;74111;45.650;25.612;2023-12-14T11:54:50;93981.81;;;9.24;67.43
84028;BME280;74111;45.650;25.612;2023-12-14T11:57:20;93983.39;;;9.21;67.21
84028;BME280;74111;45.650;25.612;2023-12-14T11:59:50;93982.64;;;9.22;67.41
84028;BME280;74111;45.650;25.612;2023-12-14T12:02:24;93990.06;;;9.10;67.21
84028;BME280;74111;45.650;25.612;2023-12-14T12:04:53;94005.03;;;9.06;67.54
84028;BME280;74111;45.650;25.612;2023-12-14T12:07:23;94003.41;;;9.00;67.64
84028;BME280;74111;45.650;25.612;2023-12-14T12:09:53;94013.66;;;8.93;68.00
84028;BME280;74111;45.650;25.612;2023-12-14T12:12:22;94015.48;;;8.96;68.14
84028;BME280;74111;45.650;25.612;2023-12-14T12:14:52;94013.73;;;8.98;68.01
84028;BME280;74111;45.650;25.612;2023-12-14T12:17:23;94016.25;;;8.97;67.89
84028;BME280;74111;45.650;25.612;2023-12-14T12:19:51;94019.39;;;8.94;67.97
84028;BME280;74111;45.650;25.612;2023-12-14T12:22:20;94018.92;;;8.92;68.40
84028;BME280;74111;45.650;25.612;2023-12-14T12:24:50;94017.91;;;8.91;68.33
84028;BME280;74111;45.650;25.612;2023-12-14T12:27:32;94019.39;;;8.88;68.43
84028;BME280;74111;45.650;25.612;2023-12-14T12:30:02;94034.25;;;8.86;68.65
84028;BME280;74111;45.650;25.612;2023-12-14T12:32:32;94038.79;;;8.89;68.98
84028;BME280;74111;45.650;25.612;2023-12-14T12:35:02;94037.60;;;8.81;69.20
84028;BME280;74111;45.650;25.612;2023-12-14T12:37:31;94038.50;;;8.75;69.80
84028;BME280;74111;45.650;25.612;2023-12-14T12:40:01;94041.30;;;8.75;69.77
84028;BME280;74111;45.650;25.612;2023-12-14T12:42:30;94040.44;;;8.75;69.83
84028;BME280;74111;45.650;25.612;2023-12-14T12:45:00;94033.67;;;8.78;69.82
84028;BME280;74111;45.650;25.612;2023-12-14T12:47:30;94031.69;;;8.80;69.50
84028;BME280;74111;45.650;25.612;2023-12-14T12:50:00;94028.66;;;8.80;69.50
84028;BME280;74111;45.650;25.612;2023-12-14T12:52:29;94022.89;;;8.81;69.73
84028;BME280;74111;45.650;25.612;2023-12-14T12:54:58;94015.20;;;8.86;69.49
84028;BME280;74111;45.650;25.612;2023-12-14T12:57:27;94011.44;;;8.90;69.25
84028;BME280;74111;45.650;25.612;2023-12-14T12:59:57;94004.36;;;8.94;69.23
84028;BME280;74111;45.650;25.612;2023-12-14T13:02:26;94010.41;;;8.98;68.99
84028;BME280;74111;45.650;25.612;2023-12-14T13:04:56;94012.83;;;9.01;69.01
84028;BME280;74111;45.650;25.612;2023-12-14T13:07:26;94022.47;;;9.03;68.58
84028;BME280;74111;45.650;25.612;2023-12-14T13:09:55;94031.60;;;9.02;68.18
84028;BME280;74111;45.650;25.612;2023-12-14T13:12:24;94047.84;;;9.02;67.99
84028;BME280;74111;45.650;25.612;2023-12-14T13:14:53;94052.38;;;9.04;67.85
84028;BME280;74111;45.650;25.612;2023-12-14T13:17:24;94056.71;;;9.04;68.03
84028;BME280;74111;45.650;25.612;2023-12-14T13:19:53;94067.09;;;9.03;68.48
84028;BME280;74111;45.650;25.612;2023-12-14T13:22:23;94065.91;;;9.02;68.49
84028;BME280;74111;45.650;25.612;2023-12-14T13:24:54;94071.39;;;9.05;68.58
84028;BME280;74111;45.650;25.612;2023-12-14T13:27:25;94072.18;;;9.07;68.48
84028;BME280;74111;45.650;25.612;2023-12-14T13:29:54;94078.47;;;9.08;68.18
84028;BME280;74111;45.650;25.612;2023-12-14T13:32:22;94087.52;;;9.06;67.67
84028;BME280;74111;45.650;25.612;2023-12-14T13:34:52;94090.30;;;9.00;67.97
84028;BME280;74111;45.650;25.612;2023-12-14T13:37:21;94090.54;;;8.97;68.02
84028;BME280;74111;45.650;25.612;2023-12-14T13:39:50;94091.04;;;8.93;67.93
84028;BME280;74111;45.650;25.612;2023-12-14T13:42:18;94110.84;;;8.86;68.10
84028;BME280;74111;45.650;25.612;2023-12-14T13:44:47;94120.12;;;8.84;68.27
84028;BME280;74111;45.650;25.612;2023-12-14T13:47:16;94121.86;;;8.80;68.11
84028;BME280;74111;45.650;25.612;2023-12-14T13:49:46;94121.22;;;8.74;68.47
84028;BME280;74111;45.650;25.612;2023-12-14T13:52:15;94120.40;;;8.77;68.64
84028;BME280;74111;45.650;25.612;2023-12-14T13:54:45;94122.67;;;8.82;68.60
84028;BME280;74111;45.650;25.612;2023-12-14T13:57:15;94125.48;;;8.81;67.38
84028;BME280;74111;45.650;25.612;2023-12-14T13:59:44;94127.91;;;8.79;66.85
84028;BME280;74111;45.650;25.612;2023-12-14T14:02:15;94123.66;;;8.76;66.52
84028;BME280;74111;45.650;25.612;2023-12-14T14:04:44;94123.45;;;8.76;66.77
84028;BME280;74111;45.650;25.612;2023-12-14T14:07:16;94125.57;;;8.80;66.89
84028;BME280;74111;45.650;25.612;2023-12-14T14:09:47;94131.02;;;8.79;67.22
84028;BME280;74111;45.650;25.612;2023-12-14T14:12:15;94132.53;;;8.79;67.91
84028;BME280;74111;45.650;25.612;2023-12-14T14:14:44;94134.50;;;8.81;67.40
84028;BME280;74111;45.650;25.612;2023-12-14T14:17:13;94132.46;;;8.84;67.55
84028;BME280;74111;45.650;25.612;2023-12-14T14:19:43;94138.80;;;8.88;68.22
84028;BME280;74111;45.650;25.612;2023-12-14T14:22:12;94139.27;;;8.94;68.40
84028;BME280;74111;45.650;25.612;2023-12-14T14:24:41;94135.69;;;8.99;68.44
84028;BME280;74111;45.650;25.612;2023-12-14T14:27:09;94136.67;;;9.05;68.84
84028;BME280;74111;45.650;25.612;2023-12-14T14:29:39;94141.23;;;9.12;68.47
84028;BME280;74111;45.650;25.612;2023-12-14T14:32:09;94142.17;;;9.14;67.94
84028;BME280;74111;45.650;25.612;2023-12-14T14:34:39;94146.42;;;9.16;67.92
84028;BME280;74111;45.650;25.612;2023-12-14T14:37:09;94147.59;;;9.21;67.84
84028;BME280;74111;45.650;25.612;2023-12-14T14:39:39;94147.96;;;9.20;67.23
84028;BME280;74111;45.650;25.612;2023-12-14T14:42:11;94150.50;;;9.18;67.04
84028;BME280;74111;45.650;25.612;2023-12-14T14:44:40;94149.48;;;9.17;67.19
84028;BME280;74111;45.650;25.612;2023-12-14T14:47:09;94153.92;;;9.16;67.16
